sensor_id;sensor_type;location;lat;lon;timestamp;P1;durP1;ratioP1;P2;durP2;ratioP2
15216;SDS011;7711;46.634;14.318;2023-05-28T00:01:29;16.85;;;7.03;;
15216;SDS011;7711;46.634;14.318;2023-05-28T00:03:56;10.70;;;6.60;;
15216;SDS011;7711;46.634;14.318;2023-05-28T00:06:23;10.52;;;7.20;;
15216;SDS011;7711;46.634;14.318;2023-05-28T00:08:51;9.88;;;6.72;;
15216;SDS011;7711;46.634;14.318;2023-05-28T00:11:18;11.90;;;6.95;;
15216;SDS011;7711;46.634;14.318;2023-05-28T00:13:46;9.75;;;6.90;;
15216;SDS011;7711;46.634;14.318;2023-05-28T00:16:13;11.25;;;6.80;;
15216;SDS011;7711;46.634;14.318;2023-05-28T00:18:40;9.95;;;6.80;;
15216;SDS011;7711;46.634;14.318;2023-05-28T00:21:07;10.77;;;6.78;;
15216;SDS011;7711;46.634;14.318;2023-05-28T00:23:34;12.80;;;6.88;;
15216;SDS011;7711;46.634;14.318;2023-05-28T00:26:02;8.90;;;6.32;;
15216;SDS011;7711;46.634;14.318;2023-05-28T00:28:29;12.85;;;6.47;;
15216;SDS011;7711;46.634;14.318;2023-05-28T00:30:56;10.95;;;7.63;;
15216;SDS011;7711;46.634;14.318;2023-05-28T00:33:23;12.98;;;7.03;;
15216;SDS011;7711;46.634;14.318;2023-05-28T00:35:50;8.68;;;6.53;;
15216;SDS011;7711;46.634;14.318;2023-05-28T00:38:21;11.82;;;7.20;;
15216;SDS011;7711;46.634;14.318;2023-05-28T00:40:47;15.65;;;7.22;;
15216;SDS011;7711;46.634;14.318;2023-05-28T00:43:16;10.63;;;6.70;;
15216;SDS011;7711;46.634;14.318;2023-05-28T00:45:44;14.35;;;6.75;;
15216;SDS011;7711;46.634;14.318;2023-05-28T00:48:13;12.60;;;7.07;;
15216;SDS011;7711;46.634;14.318;2023-05-28T00:50:40;14.68;;;6.55;;
15216;SDS011;7711;46.634;14.318;2023-05-28T00:53:09;13.85;;;7.32;;
15216;SDS011;7711;46.634;14.318;2023-05-28T00:55:38;10.38;;;6.80;;
15216;SDS011;7711;46.634;14.318;2023-05-28T00:58:05;13.13;;;6.30;;
15216;SDS011;7711;46.634;14.318;2023-05-28T01:00:34;10.25;;;6.57;;
15216;SDS011;7711;46.634;14.318;2023-05-28T01:03:02;11.38;;;6.30;;
15216;SDS011;7711;46.634;14.318;2023-05-28T01:05:30;10.63;;;6.22;;
15216;SDS011;7711;46.634;14.318;2023-05-28T01:07:59;12.48;;;6.30;;
15216;SDS011;7711;46.634;14.318;2023-05-28T01:10:26;13.15;;;7.25;;
15216;SDS011;7711;46.634;14.318;2023-05-28T01:12:54;10.63;;;6.65;;
15216;SDS011;7711;46.634;14.318;2023-05-28T01:15:22;11.43;;;6.85;;
15216;SDS011;7711;46.634;14.318;2023-05-28T01:17:52;10.43;;;6.82;;
15216;SDS011;7711;46.634;14.318;2023-05-28T01:20:23;10.23;;;6.65;;
15216;SDS011;7711;46.634;14.318;2023-05-28T01:22:53;12.10;;;6.95;;
15216;SDS011;7711;46.634;14.318;2023-05-28T01:25:22;9.80;;;6.47;;
15216;SDS011;7711;46.634;14.318;2023-05-28T01:27:50;13.18;;;6.70;;
15216;SDS011;7711;46.634;14.318;2023-05-28T01:30:17;15.57;;;6.78;;
15216;SDS011;7711;46.634;14.318;2023-05-28T01:32:44;15.75;;;7.03;;
15216;SDS011;7711;46.634;14.318;2023-05-28T01:35:11;12.25;;;6.97;;
15216;SDS011;7711;46.634;14.318;2023-05-28T01:37:39;11.65;;;6.95;;
15216;SDS011;7711;46.634;14.318;2023-05-28T01:40:09;12.18;;;7.10;;
15216;SDS011;7711;46.634;14.318;2023-05-28T01:42:40;12.75;;;7.35;;
15216;SDS011;7711;46.634;14.318;2023-05-28T01:45:09;11.15;;;7.03;;
15216;SDS011;7711;46.634;14.318;2023-05-28T01:47:38;14.25;;;7.55;;
15216;SDS011;7711;46.634;14.318;2023-05-28T01:50:06;13.40;;;7.57;;
15216;SDS011;7711;46.634;14.318;2023-05-28T01:52:34;16.50;;;7.38;;
15216;SDS011;7711;46.634;14.318;2023-05-28T01:55:01;11.38;;;7.22;;
15216;SDS011;7711;46.634;14.318;2023-05-28T01:57:29;10.80;;;7.28;;
15216;SDS011;7711;46.634;14.318;2023-05-28T01:59:58;12.00;;;7.15;;
15216;SDS011;7711;46.634;14.318;2023-05-28T02:02:25;14.43;;;7.97;;
15216;SDS011;7711;46.634;14.318;2023-05-28T02:04:52;10.52;;;7.43;;
15216;SDS011;7711;46.634;14.318;2023-05-28T02:07:19;10.63;;;7.22;;
15216;SDS011;7711;46.634;14.318;2023-05-28T02:09:46;12.73;;;7.78;;
15216;SDS011;7711;46.634;14.318;2023-05-28T02:12:13;15.48;;;8.52;;
15216;SDS011;7711;46.634;14.318;2023-05-28T02:14:40;11.93;;;6.78;;
15216;SDS011;7711;46.634;14.318;2023-05-28T02:17:09;13.13;;;7.30;;
15216;SDS011;7711;46.634;14.318;2023-05-28T02:19:37;10.82;;;7.63;;
15216;SDS011;7711;46.634;14.318;2023-05-28T02:22:04;12.13;;;7.90;;
15216;SDS011;7711;46.634;14.318;2023-05-28T02:24:36;12.88;;;8.30;;
15216;SDS011;7711;46.634;14.318;2023-05-28T02:27:03;15.55;;;7.55;;
15216;SDS011;7711;46.634;14.318;2023-05-28T02:29:31;12.57;;;8.50;;
15216;SDS011;7711;46.634;14.318;2023-05-28T02:31:59;16.35;;;8.38;;
15216;SDS011;7711;46.634;14.318;2023-05-28T02:34:27;12.02;;;8.82;;
15216;SDS011;7711;46.634;14.318;2023-05-28T02:36:54;12.00;;;8.23;;
15216;SDS011;7711;46.634;14.318;2023-05-28T02:39:21;12.30;;;8.65;;
15216;SDS011;7711;46.634;14.318;2023-05-28T02:41:49;13.88;;;8.52;;
15216;SDS011;7711;46.634;14.318;2023-05-28T02:44:15;13.77;;;9.20;;
15216;SDS011;7711;46.634;14.318;2023-05-28T02:46:43;12.97;;;8.63;;
15216;SDS011;7711;46.634;14.318;2023-05-28T02:49:10;12.73;;;8.43;;
15216;SDS011;7711;46.634;14.318;2023-05-28T02:51:38;13.73;;;8.30;;
15216;SDS011;7711;46.634;14.318;2023-05-28T02:54:05;14.23;;;9.00;;
15216;SDS011;7711;46.634;14.318;2023-05-28T02:56:32;13.37;;;8.53;;
15216;SDS011;7711;46.634;14.318;2023-05-28T02:58:59;14.27;;;9.67;;
15216;SDS011;7711;46.634;14.318;2023-05-28T03:01:26;14.03;;;8.57;;
15216;SDS011;7711;46.634;14.318;2023-05-28T03:03:53;13.13;;;8.67;;
15216;SDS011;7711;46.634;14.318;2023-05-28T03:06:20;13.83;;;8.87;;
15216;SDS011;7711;46.634;14.318;2023-05-28T03:08:49;12.90;;;9.17;;
15216;SDS011;7711;46.634;14.318;2023-05-28T03:11:16;14.27;;;9.73;;
15216;SDS011;7711;46.634;14.318;2023-05-28T03:13:42;16.57;;;9.67;;
15216;SDS011;7711;46.634;14.318;2023-05-28T03:16:10;14.30;;;9.33;;
15216;SDS011;7711;46.634;14.318;2023-05-28T03:18:37;17.50;;;9.63;;
15216;SDS011;7711;46.634;14.318;2023-05-28T03:21:04;12.53;;;8.80;;
15216;SDS011;7711;46.634;14.318;2023-05-28T03:23:31;13.63;;;9.03;;
15216;SDS011;7711;46.634;14.318;2023-05-28T03:26:00;15.00;;;9.20;;
15216;SDS011;7711;46.634;14.318;2023-05-28T03:28:27;15.10;;;8.77;;
15216;SDS011;7711;46.634;14.318;2023-05-28T03:30:55;12.57;;;9.10;;
15216;SDS011;7711;46.634;14.318;2023-05-28T03:33:23;14.43;;;9.23;;
15216;SDS011;7711;46.634;14.318;2023-05-28T03:35:50;12.53;;;9.10;;
15216;SDS011;7711;46.634;14.318;2023-05-28T03:38:17;12.40;;;9.27;;
15216;SDS011;7711;46.634;14.318;2023-05-28T03:40:43;11.23;;;9.40;;
15216;SDS011;7711;46.634;14.318;2023-05-28T03:43:12;14.10;;;9.50;;
15216;SDS011;7711;46.634;14.318;2023-05-28T03:45:39;16.50;;;9.07;;
15216;SDS011;7711;46.634;14.318;2023-05-28T03:48:06;14.67;;;9.63;;
15216;SDS011;7711;46.634;14.318;2023-05-28T03:50:33;13.37;;;9.77;;
15216;SDS011;7711;46.634;14.318;2023-05-28T03:53:00;16.17;;;9.37;;
15216;SDS011;7711;46.634;14.318;2023-05-28T03:55:27;15.13;;;9.37;;
15216;SDS011;7711;46.634;14.318;2023-05-28T03:57:54;12.00;;;8.73;;
15216;SDS011;7711;46.634;14.318;2023-05-28T04:00:22;12.40;;;9.23;;
15216;SDS011;7711;46.634;14.318;2023-05-28T04:02:49;12.97;;;9.30;;
15216;SDS011;7711;46.634;14.318;2023-05-28T04:05:16;15.87;;;9.73;;
15216;SDS011;7711;46.634;14.318;2023-05-28T04:07:43;14.57;;;10.63;;
15216;SDS011;7711;46.634;14.318;2023-05-28T04:10:10;13.63;;;9.67;;
15216;SDS011;7711;46.634;14.318;2023-05-28T04:12:37;12.80;;;9.53;;
15216;SDS011;7711;46.634;14.318;2023-05-28T04:15:04;14.40;;;9.13;;
15216;SDS011;7711;46.634;14.318;2023-05-28T04:17:33;15.97;;;9.67;;
15216;SDS011;7711;46.634;14.318;2023-05-28T04:20:00;13.10;;;9.00;;
15216;SDS011;7711;46.634;14.318;2023-05-28T04:22:30;16.40;;;9.53;;
15216;SDS011;7711;46.634;14.318;2023-05-28T04:24:59;12.95;;;8.88;;
15216;SDS011;7711;46.634;14.318;2023-05-28T04:27:27;11.00;;;8.77;;
15216;SDS011;7711;46.634;14.318;2023-05-28T04:29:54;12.07;;;9.10;;
15216;SDS011;7711;46.634;14.318;2023-05-28T04:32:22;12.27;;;8.88;;
15216;SDS011;7711;46.634;14.318;2023-05-28T04:34:50;12.02;;;8.70;;
15216;SDS011;7711;46.634;14.318;2023-05-28T04:37:18;13.20;;;9.55;;
15216;SDS011;7711;46.634;14.318;2023-05-28T04:39:47;13.23;;;9.15;;
15216;SDS011;7711;46.634;14.318;2023-05-28T04:42:15;12.82;;;9.00;;
15216;SDS011;7711;46.634;14.318;2023-05-28T04:44:43;12.13;;;8.60;;
15216;SDS011;7711;46.634;14.318;2023-05-28T04:47:10;14.27;;;9.13;;
15216;SDS011;7711;46.634;14.318;2023-05-28T04:49:38;13.57;;;9.23;;
15216;SDS011;7711;46.634;14.318;2023-05-28T04:52:06;15.18;;;9.50;;
15216;SDS011;7711;46.634;14.318;2023-05-28T04:54:33;11.15;;;9.07;;
15216;SDS011;7711;46.634;14.318;2023-05-28T04:57:00;15.82;;;9.63;;
15216;SDS011;7711;46.634;14.318;2023-05-28T04:59:30;11.90;;;8.93;;
15216;SDS011;7711;46.634;14.318;2023-05-28T05:01:57;15.20;;;9.27;;
15216;SDS011;7711;46.634;14.318;2023-05-28T05:04:24;13.15;;;9.57;;
15216;SDS011;7711;46.634;14.318;2023-05-28T05:06:51;14.07;;;9.55;;
15216;SDS011;7711;46.634;14.318;2023-05-28T05:09:19;10.65;;;8.75;;
15216;SDS011;7711;46.634;14.318;2023-05-28T05:11:46;13.98;;;9.07;;
15216;SDS011;7711;46.634;14.318;2023-05-28T05:14:13;14.00;;;9.52;;
15216;SDS011;7711;46.634;14.318;2023-05-28T05:16:40;11.88;;;8.35;;
15216;SDS011;7711;46.634;14.318;2023-05-28T05:19:07;12.68;;;8.98;;
15216;SDS011;7711;46.634;14.318;2023-05-28T05:21:34;19.23;;;9.40;;
15216;SDS011;7711;46.634;14.318;2023-05-28T05:24:01;14.70;;;9.70;;
15216;SDS011;7711;46.634;14.318;2023-05-28T05:26:29;12.50;;;8.63;;
15216;SDS011;7711;46.634;14.318;2023-05-28T05:28:56;12.13;;;9.38;;
15216;SDS011;7711;46.634;14.318;2023-05-28T05:31:23;14.43;;;9.15;;
15216;SDS011;7711;46.634;14.318;2023-05-28T05:33:50;13.05;;;8.90;;
15216;SDS011;7711;46.634;14.318;2023-05-28T05:36:17;14.07;;;8.95;;
15216;SDS011;7711;46.634;14.318;2023-05-28T05:38:44;11.30;;;8.63;;
15216;SDS011;7711;46.634;14.318;2023-05-28T05:41:11;11.63;;;8.30;;
15216;SDS011;7711;46.634;14.318;2023-05-28T05:43:40;10.00;;;8.55;;
15216;SDS011;7711;46.634;14.318;2023-05-28T05:46:07;11.90;;;8.52;;
15216;SDS011;7711;46.634;14.318;2023-05-28T05:48:34;13.82;;;9.85;;
15216;SDS011;7711;46.634;14.318;2023-05-28T05:51:01;13.70;;;9.13;;
15216;SDS011;7711;46.634;14.318;2023-05-28T05:53:28;14.55;;;8.40;;
15216;SDS011;7711;46.634;14.318;2023-05-28T05:55:55;14.93;;;9.35;;
15216;SDS011;7711;46.634;14.318;2023-05-28T05:58:22;15.02;;;9.25;;
15216;SDS011;7711;46.634;14.318;2023-05-28T06:00:50;14.38;;;8.73;;
15216;SDS011;7711;46.634;14.318;2023-05-28T06:03:17;10.68;;;8.35;;
15216;SDS011;7711;46.634;14.318;2023-05-28T06:05:44;14.25;;;8.73;;
15216;SDS011;7711;46.634;14.318;2023-05-28T06:08:11;12.80;;;8.82;;
15216;SDS011;7711;46.634;14.318;2023-05-28T06:10:38;11.18;;;8.43;;
15216;SDS011;7711;46.634;14.318;2023-05-28T06:13:05;15.07;;;8.98;;
15216;SDS011;7711;46.634;14.318;2023-05-28T06:15:32;11.40;;;8.25;;
15216;SDS011;7711;46.634;14.318;2023-05-28T06:18:01;11.68;;;8.20;;
15216;SDS011;7711;46.634;14.318;2023-05-28T06:20:29;12.80;;;8.75;;
15216;SDS011;7711;46.634;14.318;2023-05-28T06:22:56;13.20;;;7.70;;
15216;SDS011;7711;46.634;14.318;2023-05-28T06:25:23;15.18;;;8.55;;
15216;SDS011;7711;46.634;14.318;2023-05-28T06:27:50;10.77;;;7.75;;
15216;SDS011;7711;46.634;14.318;2023-05-28T06:30:17;12.70;;;8.57;;
15216;SDS011;7711;46.634;14.318;2023-05-28T06:32:44;13.57;;;7.82;;
15216;SDS011;7711;46.634;14.318;2023-05-28T06:35:12;11.52;;;7.03;;
15216;SDS011;7711;46.634;14.318;2023-05-28T06:37:39;12.27;;;8.15;;
15216;SDS011;7711;46.634;14.318;2023-05-28T06:40:07;17.52;;;7.60;;
15216;SDS011;7711;46.634;14.318;2023-05-28T06:42:35;11.55;;;7.88;;
15216;SDS011;7711;46.634;14.318;2023-05-28T06:45:02;14.43;;;7.90;;
15216;SDS011;7711;46.634;14.318;2023-05-28T06:47:30;12.52;;;7.50;;
15216;SDS011;7711;46.634;14.318;2023-05-28T06:49:56;10.45;;;7.72;;
15216;SDS011;7711;46.634;14.318;2023-05-28T06:52:25;11.93;;;8.23;;
15216;SDS011;7711;46.634;14.318;2023-05-28T06:54:52;11.63;;;7.97;;
15216;SDS011;7711;46.634;14.318;2023-05-28T06:57:19;12.63;;;7.47;;
15216;SDS011;7711;46.634;14.318;2023-05-28T06:59:47;13.05;;;7.57;;
15216;SDS011;7711;46.634;14.318;2023-05-28T07:02:14;11.50;;;7.65;;
15216;SDS011;7711;46.634;14.318;2023-05-28T07:04:41;15.45;;;7.72;;
15216;SDS011;7711;46.634;14.318;2023-05-28T07:07:08;11.85;;;7.55;;
15216;SDS011;7711;46.634;14.318;2023-05-28T07:09:36;12.82;;;7.72;;
15216;SDS011;7711;46.634;14.318;2023-05-28T07:12:03;12.00;;;7.65;;
15216;SDS011;7711;46.634;14.318;2023-05-28T07:14:32;11.20;;;7.65;;
15216;SDS011;7711;46.634;14.318;2023-05-28T07:16:58;12.25;;;7.88;;
15216;SDS011;7711;46.634;14.318;2023-05-28T07:19:25;12.63;;;8.60;;
15216;SDS011;7711;46.634;14.318;2023-05-28T07:21:52;14.45;;;8.23;;
15216;SDS011;7711;46.634;14.318;2023-05-28T07:24:19;13.50;;;8.32;;
15216;SDS011;7711;46.634;14.318;2023-05-28T07:26:47;14.65;;;8.55;;
15216;SDS011;7711;46.634;14.318;2023-05-28T07:29:14;17.58;;;8.70;;
15216;SDS011;7711;46.634;14.318;2023-05-28T07:31:43;12.38;;;8.60;;
15216;SDS011;7711;46.634;14.318;2023-05-28T07:34:10;15.55;;;9.70;;
15216;SDS011;7711;46.634;14.318;2023-05-28T07:36:37;13.38;;;8.73;;
15216;SDS011;7711;46.634;14.318;2023-05-28T07:39:04;12.00;;;8.10;;
15216;SDS011;7711;46.634;14.318;2023-05-28T07:41:31;15.15;;;8.48;;
15216;SDS011;7711;46.634;14.318;2023-05-28T07:44:00;11.07;;;7.50;;
15216;SDS011;7711;46.634;14.318;2023-05-28T07:46:27;15.70;;;8.75;;
15216;SDS011;7711;46.634;14.318;2023-05-28T07:48:57;12.68;;;8.27;;
15216;SDS011;7711;46.634;14.318;2023-05-28T07:51:24;11.60;;;7.80;;
15216;SDS011;7711;46.634;14.318;2023-05-28T07:53:52;11.18;;;7.45;;
15216;SDS011;7711;46.634;14.318;2023-05-28T07:56:19;10.80;;;6.90;;
15216;SDS011;7711;46.634;14.318;2023-05-28T07:58:47;8.68;;;6.78;;
15216;SDS011;7711;46.634;14.318;2023-05-28T08:01:15;8.93;;;6.57;;
15216;SDS011;7711;46.634;14.318;2023-05-28T08:03:42;11.35;;;7.18;;
15216;SDS011;7711;46.634;14.318;2023-05-28T08:06:13;9.60;;;6.88;;
15216;SDS011;7711;46.634;14.318;2023-05-28T08:08:40;11.73;;;6.28;;
15216;SDS011;7711;46.634;14.318;2023-05-28T08:11:07;10.68;;;5.70;;
15216;SDS011;7711;46.634;14.318;2023-05-28T08:13:35;7.53;;;5.70;;
15216;SDS011;7711;46.634;14.318;2023-05-28T08:16:02;8.93;;;5.82;;
15216;SDS011;7711;46.634;14.318;2023-05-28T08:18:31;11.25;;;5.55;;
15216;SDS011;7711;46.634;14.318;2023-05-28T08:20:58;10.55;;;6.13;;
15216;SDS011;7711;46.634;14.318;2023-05-28T08:23:25;12.30;;;6.10;;
15216;SDS011;7711;46.634;14.318;2023-05-28T08:25:52;8.27;;;5.35;;
15216;SDS011;7711;46.634;14.318;2023-05-28T08:28:22;8.60;;;6.10;;
15216;SDS011;7711;46.634;14.318;2023-05-28T08:30:50;8.38;;;4.93;;
15216;SDS011;7711;46.634;14.318;2023-05-28T08:33:17;7.50;;;5.03;;
15216;SDS011;7711;46.634;14.318;2023-05-28T08:35:46;9.65;;;5.68;;
15216;SDS011;7711;46.634;14.318;2023-05-28T08:38:12;9.65;;;5.15;;
15216;SDS011;7711;46.634;14.318;2023-05-28T08:40:40;8.70;;;5.43;;
15216;SDS011;7711;46.634;14.318;2023-05-28T08:43:09;8.05;;;5.15;;
15216;SDS011;7711;46.634;14.318;2023-05-28T08:45:36;8.43;;;5.72;;
15216;SDS011;7711;46.634;14.318;2023-05-28T08:48:03;10.50;;;5.18;;
15216;SDS011;7711;46.634;14.318;2023-05-28T08:50:32;10.38;;;5.60;;
15216;SDS011;7711;46.634;14.318;2023-05-28T08:53:06;7.75;;;5.30;;
15216;SDS011;7711;46.634;14.318;2023-05-28T08:55:36;9.48;;;5.50;;
15216;SDS011;7711;46.634;14.318;2023-05-28T08:58:03;7.70;;;5.55;;
15216;SDS011;7711;46.634;14.318;2023-05-28T09:00:30;8.00;;;5.43;;
15216;SDS011;7711;46.634;14.318;2023-05-28T09:02:57;8.45;;;5.47;;
15216;SDS011;7711;46.634;14.318;2023-05-28T09:05:24;10.13;;;5.78;;
15216;SDS011;7711;46.634;14.318;2023-05-28T09:07:51;7.90;;;5.80;;
15216;SDS011;7711;46.634;14.318;2023-05-28T09:10:19;9.15;;;6.18;;
15216;SDS011;7711;46.634;14.318;2023-05-28T09:12:57;11.20;;;6.35;;
15216;SDS011;7711;46.634;14.318;2023-05-28T09:15:25;9.20;;;6.03;;
15216;SDS011;7711;46.634;14.318;2023-05-28T09:17:52;11.07;;;5.97;;
15216;SDS011;7711;46.634;14.318;2023-05-28T09:20:19;9.07;;;5.93;;
15216;SDS011;7711;46.634;14.318;2023-05-28T09:22:52;12.60;;;5.97;;
15216;SDS011;7711;46.634;14.318;2023-05-28T09:25:25;10.35;;;6.03;;
15216;SDS011;7711;46.634;14.318;2023-05-28T09:27:53;9.90;;;6.35;;
15216;SDS011;7711;46.634;14.318;2023-05-28T09:30:20;9.30;;;6.13;;
15216;SDS011;7711;46.634;14.318;2023-05-28T09:32:55;9.73;;;5.72;;
15216;SDS011;7711;46.634;14.318;2023-05-28T09:35:24;11.43;;;6.85;;
15216;SDS011;7711;46.634;14.318;2023-05-28T09:37:58;11.27;;;6.68;;
15216;SDS011;7711;46.634;14.318;2023-05-28T09:40:31;11.13;;;6.53;;
15216;SDS011;7711;46.634;14.318;2023-05-28T09:42:58;9.55;;;6.18;;
15216;SDS011;7711;46.634;14.318;2023-05-28T09:45:25;14.00;;;6.90;;
15216;SDS011;7711;46.634;14.318;2023-05-28T09:47:53;9.18;;;6.05;;
15216;SDS011;7711;46.634;14.318;2023-05-28T09:50:20;10.05;;;6.13;;
15216;SDS011;7711;46.634;14.318;2023-05-28T09:52:47;10.55;;;6.45;;
15216;SDS011;7711;46.634;14.318;2023-05-28T09:55:14;9.20;;;6.13;;
15216;SDS011;7711;46.634;14.318;2023-05-28T09:57:58;9.25;;;6.38;;
15216;SDS011;7711;46.634;14.318;2023-05-28T10:00:32;11.73;;;6.25;;
15216;SDS011;7711;46.634;14.318;2023-05-28T10:03:05;10.60;;;6.53;;
15216;SDS011;7711;46.634;14.318;2023-05-28T10:05:39;13.02;;;6.80;;
15216;SDS011;7711;46.634;14.318;2023-05-28T10:08:10;9.10;;;6.35;;
15216;SDS011;7711;46.634;14.318;2023-05-28T10:10:40;9.50;;;6.63;;
15216;SDS011;7711;46.634;14.318;2023-05-28T10:13:09;8.45;;;6.68;;
15216;SDS011;7711;46.634;14.318;2023-05-28T10:15:36;8.95;;;6.57;;
15216;SDS011;7711;46.634;14.318;2023-05-28T10:18:04;8.98;;;6.00;;
15216;SDS011;7711;46.634;14.318;2023-05-28T10:20:32;10.10;;;6.60;;
15216;SDS011;7711;46.634;14.318;2023-05-28T10:22:59;8.63;;;6.75;;
15216;SDS011;7711;46.634;14.318;2023-05-28T10:25:27;10.50;;;6.28;;
15216;SDS011;7711;46.634;14.318;2023-05-28T10:27:57;10.32;;;6.50;;
15216;SDS011;7711;46.634;14.318;2023-05-28T10:30:32;8.32;;;6.20;;
15216;SDS011;7711;46.634;14.318;2023-05-28T10:33:00;10.15;;;5.93;;
15216;SDS011;7711;46.634;14.318;2023-05-28T10:35:31;10.80;;;6.90;;
15216;SDS011;7711;46.634;14.318;2023-05-28T10:38:05;9.98;;;6.38;;
15216;SDS011;7711;46.634;14.318;2023-05-28T10:40:33;7.47;;;6.15;;
15216;SDS011;7711;46.634;14.318;2023-05-28T10:43:01;10.90;;;6.38;;
15216;SDS011;7711;46.634;14.318;2023-05-28T10:45:35;10.70;;;6.40;;
15216;SDS011;7711;46.634;14.318;2023-05-28T10:48:03;9.23;;;6.20;;
15216;SDS011;7711;46.634;14.318;2023-05-28T10:50:30;9.50;;;6.60;;
15216;SDS011;7711;46.634;14.318;2023-05-28T10:53:03;10.05;;;6.35;;
15216;SDS011;7711;46.634;14.318;2023-05-28T10:55:45;8.35;;;6.45;;
15216;SDS011;7711;46.634;14.318;2023-05-28T10:58:21;9.93;;;6.38;;
15216;SDS011;7711;46.634;14.318;2023-05-28T11:00:53;10.93;;;6.03;;
15216;SDS011;7711;46.634;14.318;2023-05-28T11:03:42;9.48;;;6.20;;
15216;SDS011;7711;46.634;14.318;2023-05-28T11:06:10;7.18;;;5.93;;
15216;SDS011;7711;46.634;14.318;2023-05-28T11:08:39;8.70;;;6.00;;
15216;SDS011;7711;46.634;14.318;2023-05-28T11:11:07;9.13;;;6.55;;
15216;SDS011;7711;46.634;14.318;2023-05-28T11:13:37;9.45;;;6.50;;
15216;SDS011;7711;46.634;14.318;2023-05-28T11:16:07;7.85;;;6.25;;
15216;SDS011;7711;46.634;14.318;2023-05-28T11:18:34;7.57;;;6.63;;
15216;SDS011;7711;46.634;14.318;2023-05-28T11:21:02;10.05;;;5.93;;
15216;SDS011;7711;46.634;14.318;2023-05-28T11:23:30;7.03;;;5.75;;
15216;SDS011;7711;46.634;14.318;2023-05-28T11:25:56;10.48;;;6.30;;
15216;SDS011;7711;46.634;14.318;2023-05-28T11:28:23;7.30;;;5.82;;
15216;SDS011;7711;46.634;14.318;2023-05-28T11:30:50;9.02;;;6.15;;
15216;SDS011;7711;46.634;14.318;2023-05-28T11:33:19;7.25;;;5.55;;
15216;SDS011;7711;46.634;14.318;2023-05-28T11:35:55;10.77;;;6.15;;
15216;SDS011;7711;46.634;14.318;2023-05-28T11:38:22;7.55;;;5.90;;
15216;SDS011;7711;46.634;14.318;2023-05-28T11:40:49;5.75;;;5.15;;
15216;SDS011;7711;46.634;14.318;2023-05-28T11:43:16;6.93;;;5.55;;
15216;SDS011;7711;46.634;14.318;2023-05-28T11:45:43;8.90;;;5.80;;
15216;SDS011;7711;46.634;14.318;2023-05-28T11:48:10;6.70;;;5.75;;
15216;SDS011;7711;46.634;14.318;2023-05-28T11:50:39;6.30;;;5.38;;
15216;SDS011;7711;46.634;14.318;2023-05-28T11:53:06;5.90;;;5.30;;
15216;SDS011;7711;46.634;14.318;2023-05-28T11:55:33;6.38;;;5.38;;
15216;SDS011;7711;46.634;14.318;2023-05-28T11:58:00;6.88;;;5.60;;
15216;SDS011;7711;46.634;14.318;2023-05-28T12:00:30;5.55;;;5.03;;
15216;SDS011;7711;46.634;14.318;2023-05-28T12:02:59;8.30;;;5.50;;
15216;SDS011;7711;46.634;14.318;2023-05-28T12:05:26;5.85;;;4.95;;
15216;SDS011;7711;46.634;14.318;2023-05-28T12:07:55;8.98;;;4.95;;
15216;SDS011;7711;46.634;14.318;2023-05-28T12:10:22;6.65;;;5.13;;
15216;SDS011;7711;46.634;14.318;2023-05-28T12:12:54;7.05;;;4.95;;
15216;SDS011;7711;46.634;14.318;2023-05-28T12:15:23;6.68;;;5.18;;
15216;SDS011;7711;46.634;14.318;2023-05-28T12:17:55;7.78;;;5.35;;
15216;SDS011;7711;46.634;14.318;2023-05-28T12:20:29;10.00;;;5.65;;
15216;SDS011;7711;46.634;14.318;2023-05-28T12:23:03;6.10;;;4.95;;
15216;SDS011;7711;46.634;14.318;2023-05-28T12:25:44;6.38;;;5.18;;
15216;SDS011;7711;46.634;14.318;2023-05-28T12:28:13;7.72;;;5.38;;
15216;SDS011;7711;46.634;14.318;2023-05-28T12:30:42;6.82;;;4.78;;
15216;SDS011;7711;46.634;14.318;2023-05-28T12:33:10;8.43;;;5.40;;
15216;SDS011;7711;46.634;14.318;2023-05-28T12:35:37;6.25;;;5.10;;
15216;SDS011;7711;46.634;14.318;2023-05-28T12:38:06;8.13;;;5.00;;
15216;SDS011;7711;46.634;14.318;2023-05-28T12:40:33;7.65;;;4.80;;
15216;SDS011;7711;46.634;14.318;2023-05-28T12:43:00;7.00;;;5.20;;
15216;SDS011;7711;46.634;14.318;2023-05-28T12:45:27;8.30;;;5.57;;
15216;SDS011;7711;46.634;14.318;2023-05-28T12:47:54;6.20;;;4.85;;
15216;SDS011;7711;46.634;14.318;2023-05-28T12:50:21;9.63;;;5.90;;
15216;SDS011;7711;46.634;14.318;2023-05-28T12:52:49;8.05;;;5.60;;
15216;SDS011;7711;46.634;14.318;2023-05-28T12:55:17;7.60;;;5.90;;
15216;SDS011;7711;46.634;14.318;2023-05-28T12:57:44;7.50;;;5.55;;
15216;SDS011;7711;46.634;14.318;2023-05-28T13:00:11;6.15;;;5.20;;
15216;SDS011;7711;46.634;14.318;2023-05-28T13:02:40;8.15;;;5.18;;
15216;SDS011;7711;46.634;14.318;2023-05-28T13:05:07;6.65;;;5.22;;
15216;SDS011;7711;46.634;14.318;2023-05-28T13:07:34;7.95;;;4.93;;
15216;SDS011;7711;46.634;14.318;2023-05-28T13:10:01;6.00;;;5.03;;
15216;SDS011;7711;46.634;14.318;2023-05-28T13:12:31;5.93;;;5.28;;
15216;SDS011;7711;46.634;14.318;2023-05-28T13:15:01;7.38;;;5.65;;
15216;SDS011;7711;46.634;14.318;2023-05-28T13:17:29;7.38;;;5.65;;
15216;SDS011;7711;46.634;14.318;2023-05-28T13:19:56;7.07;;;5.40;;
15216;SDS011;7711;46.634;14.318;2023-05-28T13:22:23;6.10;;;5.40;;
15216;SDS011;7711;46.634;14.318;2023-05-28T13:24:50;6.75;;;5.30;;
15216;SDS011;7711;46.634;14.318;2023-05-28T13:27:17;6.15;;;5.55;;
15216;SDS011;7711;46.634;14.318;2023-05-28T13:29:45;6.85;;;5.45;;
15216;SDS011;7711;46.634;14.318;2023-05-28T13:32:12;6.32;;;5.30;;
15216;SDS011;7711;46.634;14.318;2023-05-28T13:34:39;7.90;;;5.63;;
15216;SDS011;7711;46.634;14.318;2023-05-28T13:37:06;6.28;;;5.15;;
15216;SDS011;7711;46.634;14.318;2023-05-28T13:39:33;5.70;;;5.15;;
15216;SDS011;7711;46.634;14.318;2023-05-28T13:42:00;6.32;;;5.03;;
15216;SDS011;7711;46.634;14.318;2023-05-28T13:44:28;6.18;;;5.57;;
15216;SDS011;7711;46.634;14.318;2023-05-28T13:46:57;6.00;;;5.38;;
15216;SDS011;7711;46.634;14.318;2023-05-28T13:49:24;7.78;;;5.38;;
15216;SDS011;7711;46.634;14.318;2023-05-28T13:51:51;7.03;;;5.40;;
15216;SDS011;7711;46.634;14.318;2023-05-28T13:54:18;6.22;;;5.43;;
15216;SDS011;7711;46.634;14.318;2023-05-28T13:56:45;6.45;;;5.22;;
15216;SDS011;7711;46.634;14.318;2023-05-28T13:59:12;7.45;;;5.50;;
15216;SDS011;7711;46.634;14.318;2023-05-28T14:01:39;7.97;;;5.93;;
15216;SDS011;7711;46.634;14.318;2023-05-28T14:04:07;8.13;;;5.88;;
15216;SDS011;7711;46.634;14.318;2023-05-28T14:06:34;8.02;;;7.10;;
15216;SDS011;7711;46.634;14.318;2023-05-28T14:09:01;7.68;;;6.57;;
15216;SDS011;7711;46.634;14.318;2023-05-28T14:11:30;8.48;;;5.70;;
15216;SDS011;7711;46.634;14.318;2023-05-28T14:13:57;7.55;;;5.28;;
15216;SDS011;7711;46.634;14.318;2023-05-28T14:16:24;5.63;;;5.13;;
15216;SDS011;7711;46.634;14.318;2023-05-28T14:18:50;7.53;;;5.22;;
15216;SDS011;7711;46.634;14.318;2023-05-28T14:21:19;9.30;;;8.43;;
15216;SDS011;7711;46.634;14.318;2023-05-28T14:23:46;6.95;;;6.00;;
15216;SDS011;7711;46.634;14.318;2023-05-28T14:26:13;6.95;;;5.35;;
15216;SDS011;7711;46.634;14.318;2023-05-28T14:28:39;6.20;;;5.32;;
15216;SDS011;7711;46.634;14.318;2023-05-28T14:31:06;7.32;;;5.55;;
15216;SDS011;7711;46.634;14.318;2023-05-28T14:33:33;6.07;;;4.78;;
15216;SDS011;7711;46.634;14.318;2023-05-28T14:36:00;6.65;;;4.93;;
15216;SDS011;7711;46.634;14.318;2023-05-28T14:38:28;6.28;;;4.75;;
15216;SDS011;7711;46.634;14.318;2023-05-28T14:40:55;6.47;;;4.97;;
15216;SDS011;7711;46.634;14.318;2023-05-28T14:43:22;5.72;;;4.93;;